Hauptseite
METAR-TAF:

METAR-TAF

Flughäfen :

Flughafen Teheran-Mehrabad

Teheran, Iran

Breite: 35-41N, Länge: 051-21E, Höhe: 1204 m

Beobachtung

Neuester Wetterbericht von vor 26 Minuten, um 21:30 UTC
Wind 8 kt aus West
Temperatur 29°C
Luftfeuchtigkeit 33%
Luftdruck 1004 hPa
Sichtweite 10 km oder mehr
Durchbrochene Bewölkung in der Höhe von 10000 ft

METAR: OIII 162130Z 28008KT 9999 BKN100 29/11 Q1004 A2965

Zeit: 02:26 (21:56 UTC)

Prognose

Neuester Wetterbericht von vor 4 Stunden und 26 Minuten, um 17:30 UTC
Gültige Prognose vom 16 um 18 UTC bis 17 um 24 UTC
Wind 8 kt aus Ost/Südost
Sichtweite: 8000 m
Zeitweise
vom 16 um 21 UTC bis 17 um 03 UTC
Wind 19 kt aus Nord/Nordwest
Zeitweise
vom 17 um 12 UTC bis 17 um 18 UTC
Wind 14 kt aus Ost/Südost, Böen bis zu 23 kt
Sichtweite: 4000 m
Sand

TAF: OIII 161730Z 1618/1724 12004MPS 8000 NSC TEMPO 1621/1703 340010MPS TEMPO 1712/1718 12007G12MPS 4000 SA

Wetterbeobachtungen und Prognosen von mehr als 4000 Flughäfen (METAR und TAF Bericht).

Die verfügbaren Stationen werden durch gelbe und rote Markierungen auf der Karte dargestellt.

Führen Sie die Maus auf sie, um den Namen der Station zu sehen.

Darauf klicken, um die Beobachtung von Wetterbeobachtungen und Prognosen zu sehen.

Um die Karte zu ändern : klicken Sie auf den grünen Tasten mit einem schwarzen Kreuz Zum Vergrößern, auf den grünen Button mit einem Gedankenstrich zu verkleinern, oder auf die grünen Pfeile für benachbarte Karten.


METAR-TAF: